createdAt,value
2019-06-08T00:00:58.201Z,100468.52
2019-06-08T00:03:28.976Z,100473.88
2019-06-08T00:05:59.585Z,100465.02
2019-06-08T00:08:30.235Z,100465.64
2019-06-08T00:11:00.998Z,100457.54
2019-06-08T00:13:32.356Z,100458.81
2019-06-08T00:16:03.007Z,100453.77
2019-06-08T00:18:34.165Z,100457.20
2019-06-08T00:21:04.890Z,100453.84
2019-06-08T00:23:35.799Z,100451.92
2019-06-08T00:26:06.643Z,100453.98
2019-06-08T00:28:37.296Z,100453.16
2019-06-08T00:31:08.108Z,100457.05
2019-06-08T00:33:39.005Z,100449.91
2019-06-08T00:36:09.542Z,100451.34
2019-06-08T00:38:40.181Z,100452.44
2019-06-08T00:41:11.392Z,100448.59
2019-06-08T00:43:42.092Z,100451.89
2019-06-08T00:46:12.780Z,100443.31
2019-06-08T00:48:46.271Z,100447.94
2019-06-08T00:51:16.761Z,100446.50
2019-06-08T00:53:46.026Z,100446.80
2019-06-08T00:56:15.351Z,100441.80
2019-06-08T00:58:44.626Z,100436.58
2019-06-08T01:01:13.934Z,100447.42
2019-06-08T01:03:43.747Z,100436.03
2019-06-08T01:06:13.499Z,100437.20
2019-06-08T01:08:42.615Z,100435.86
2019-06-08T01:11:12.003Z,100444.74
2019-06-08T01:13:41.390Z,100439.05
2019-06-08T01:16:10.923Z,100443.54
2019-06-08T01:18:40.285Z,100443.13
2019-06-08T01:21:09.439Z,100442.14
2019-06-08T01:23:38.757Z,100449.42
2019-06-08T01:26:08.033Z,100454.50
2019-06-08T01:28:37.258Z,100454.36
2019-06-08T01:31:06.603Z,100457.73
2019-06-08T01:33:36.306Z,100448.42
2019-06-08T01:36:05.838Z,100455.19
2019-06-08T01:38:35.571Z,100455.56
2019-06-08T01:41:04.972Z,100458.25
2019-06-08T01:43:33.980Z,100464.29
2019-06-08T01:46:03.305Z,100466.63
2019-06-08T01:48:32.429Z,100469.99
2019-06-08T01:51:01.587Z,100475.07
2019-06-08T01:53:31.186Z,100472.80
2019-06-08T01:56:00.489Z,100472.33
2019-06-08T01:58:29.574Z,100473.39
2019-06-08T02:00:58.733Z,100469.30
2019-06-08T02:03:28.154Z,100468.99
2019-06-08T02:05:57.361Z,100465.55
2019-06-08T02:08:26.625Z,100458.41
2019-06-08T02:10:55.815Z,100459.53
2019-06-08T02:13:25.056Z,100458.80
2019-06-08T02:15:54.381Z,100466.20
2019-06-08T02:18:36.476Z,100460.19
2019-06-08T02:20:55.350Z,100458.42
2019-06-08T02:23:25.180Z,100461.89
2019-06-08T02:25:54.274Z,100460.77
2019-06-08T02:28:24.196Z,100463.05
2019-06-08T02:30:53.593Z,100465.95
2019-06-08T02:33:22.717Z,100470.19
2019-06-08T02:35:51.839Z,100467.17
2019-06-08T02:38:20.940Z,100457.72
2019-06-08T02:40:50.022Z,100464.02
2019-06-08T02:43:19.292Z,100473.00
2019-06-08T02:45:48.264Z,100467.17
2019-06-08T02:48:17.290Z,100469.89
2019-06-08T02:50:56.754Z,100465.67
2019-06-08T02:53:29.611Z,100461.45
2019-06-08T02:55:58.739Z,100461.12
2019-06-08T02:58:29.250Z,100464.48
2019-06-08T03:01:00.029Z,100464.97
2019-06-08T03:03:31.695Z,100467.17
2019-06-08T03:06:03.488Z,100466.16
2019-06-08T03:08:36.364Z,100458.09
2019-06-08T03:11:06.393Z,100460.97
2019-06-08T03:13:37.870Z,100463.69
2019-06-08T03:16:06.775Z,100463.72
2019-06-08T03:18:38.176Z,100468.41
2019-06-08T03:21:07.438Z,100455.86
2019-06-08T03:23:38.642Z,100456.53
2019-06-08T03:26:07.569Z,100459.77
2019-06-08T03:28:37.741Z,100464.67
2019-06-08T03:31:08.175Z,100461.19
2019-06-08T03:33:45.412Z,100462.03
2019-06-08T03:36:08.545Z,100459.73
2019-06-08T03:38:39.923Z,100463.27
2019-06-08T03:41:09.021Z,100462.47
2019-06-08T03:43:40.759Z,100462.28
2019-06-08T03:46:09.195Z,100458.48
2019-06-08T03:48:40.040Z,100463.53
2019-06-08T03:51:09.256Z,100461.41
2019-06-08T03:53:40.058Z,100469.17
2019-06-08T03:56:09.676Z,100469.53
2019-06-08T03:58:40.666Z,100467.59
2019-06-08T04:01:10.169Z,100464.60
2019-06-08T04:03:40.012Z,100468.98
2019-06-08T04:06:09.573Z,100462.44
2019-06-08T04:08:40.199Z,100462.29
2019-06-08T04:11:09.020Z,100459.25
2019-06-08T04:13:39.780Z,100459.27
2019-06-08T04:16:09.562Z,100460.45
2019-06-08T04:18:40.265Z,100462.66
2019-06-08T04:21:09.540Z,100462.86
2019-06-08T04:23:40.575Z,100462.38
2019-06-08T04:26:09.637Z,100455.97
2019-06-08T04:28:40.514Z,100462.02
2019-06-08T04:31:09.958Z,100466.91
2019-06-08T04:33:40.273Z,100472.30
2019-06-08T04:36:09.968Z,100468.09
2019-06-08T04:38:41.195Z,100472.14
2019-06-08T04:41:10.283Z,100463.34
2019-06-08T04:43:40.415Z,100472.09
2019-06-08T04:46:10.384Z,100470.11
2019-06-08T04:48:43.149Z,100473.81
2019-06-08T04:51:13.054Z,100475.31
2019-06-08T04:53:43.258Z,100473.27
2019-06-08T04:56:13.662Z,100477.13
2019-06-08T04:58:45.996Z,100475.11
2019-06-08T05:01:13.703Z,100480.66
2019-06-08T05:03:45.608Z,100470.34
2019-06-08T05:06:15.919Z,100477.57
2019-06-08T05:08:49.609Z,100479.42
2019-06-08T05:11:19.367Z,100482.61
2019-06-08T05:13:49.711Z,100487.32
2019-06-08T05:16:19.526Z,100484.44
2019-06-08T05:18:49.690Z,100486.62
2019-06-08T05:21:19.135Z,100484.23
2019-06-08T05:23:57.926Z,100486.04
2019-06-08T05:26:19.589Z,100482.33
2019-06-08T05:28:49.564Z,100487.01
2019-06-08T05:31:19.323Z,100487.99
2019-06-08T05:33:49.757Z,100482.23
2019-06-08T05:36:19.178Z,100488.27
2019-06-08T05:38:49.676Z,100491.81
2019-06-08T05:41:19.285Z,100494.30
2019-06-08T05:43:49.798Z,100492.93
2019-06-08T05:46:19.387Z,100498.98
2019-06-08T05:48:50.359Z,100501.48
2019-06-08T05:51:19.702Z,100490.97
2019-06-08T05:53:50.119Z,100488.38
2019-06-08T05:56:19.882Z,100490.20
2019-06-08T05:58:50.334Z,100486.83
2019-06-08T06:01:19.998Z,100492.03
2019-06-08T06:03:51.823Z,100486.77
2019-06-08T06:06:24.808Z,100488.44
2019-06-08T06:08:53.886Z,100492.28
2019-06-08T06:11:22.731Z,100489.37
2019-06-08T06:13:51.710Z,100488.66
2019-06-08T06:16:20.795Z,100487.80
2019-06-08T06:18:51.977Z,100494.48
2019-06-08T06:21:23.922Z,100470.78
2019-06-08T06:23:54.533Z,100470.78
2019-06-08T06:26:27.703Z,100491.24
2019-06-08T06:28:58.879Z,100491.56
2019-06-08T06:31:31.256Z,100495.97
2019-06-08T06:34:00.726Z,100492.23
2019-06-08T06:36:29.994Z,100492.83
2019-06-08T06:39:01.649Z,100491.92
2019-06-08T06:41:32.139Z,100491.70
2019-06-08T06:44:02.466Z,100492.47
2019-06-08T06:46:31.896Z,100492.02
2019-06-08T06:49:01.362Z,100495.13
2019-06-08T06:51:33.900Z,100486.95
2019-06-08T06:54:04.494Z,100489.42
2019-06-08T06:56:33.921Z,100490.31
2019-06-08T06:59:03.192Z,100488.98
2019-06-08T07:01:32.930Z,100485.39
2019-06-08T07:04:02.540Z,100485.28
2019-06-08T07:06:31.800Z,100485.23
2019-06-08T07:09:01.708Z,100490.66
2019-06-08T07:11:32.799Z,100488.56
2019-06-08T07:14:02.140Z,100485.44
2019-06-08T07:16:31.261Z,100488.88
2019-06-08T07:19:07.560Z,100487.91
2019-06-08T07:21:42.023Z,100489.48
2019-06-08T07:24:11.081Z,100490.02
2019-06-08T07:26:40.916Z,100487.36
2019-06-08T07:29:12.200Z,100485.09
2019-06-08T07:31:41.039Z,100486.86
2019-06-08T07:34:12.882Z,100491.75
2019-06-08T07:36:41.835Z,100483.41
2019-06-08T07:39:10.888Z,100486.12
2019-06-08T07:41:41.315Z,100488.34
2019-06-08T07:44:11.495Z,100488.15
2019-06-08T07:46:41.722Z,100485.44
2019-06-08T07:49:10.668Z,100483.98
2019-06-08T07:51:58.657Z,100483.78
2019-06-08T07:54:17.224Z,100486.62
2019-06-08T07:56:46.363Z,100481.28
2019-06-08T07:59:15.493Z,100477.81
2019-06-08T08:01:53.987Z,100477.47
2019-06-08T08:04:31.375Z,100479.56
2019-06-08T08:07:02.708Z,100479.73
2019-06-08T08:09:32.496Z,100479.39
2019-06-08T08:12:01.670Z,100478.83
2019-06-08T08:14:30.929Z,100481.14
2019-06-08T08:17:00.284Z,100475.32
2019-06-08T08:19:29.561Z,100479.71
2019-06-08T08:22:18.593Z,100478.78
2019-06-08T08:24:42.943Z,100484.98
2019-06-08T08:29:58.706Z,100484.19
2019-06-08T08:32:23.199Z,100485.23
2019-06-08T08:34:53.763Z,100485.58
2019-06-08T08:37:23.006Z,100478.87
2019-06-08T08:39:53.541Z,100481.89
2019-06-08T08:42:22.680Z,100480.02
2019-06-08T08:44:52.622Z,100478.44
2019-06-08T08:47:21.751Z,100478.56
2019-06-08T08:49:52.155Z,100473.63
2019-06-08T08:52:34.470Z,100464.19
2019-06-08T08:55:02.276Z,100468.80
2019-06-08T08:57:41.168Z,100463.63
2019-06-08T09:00:08.613Z,100468.27
2019-06-08T09:02:38.440Z,100457.27
2019-06-08T09:05:10.777Z,100468.59
2019-06-08T09:07:39.613Z,100471.13
2019-06-08T09:10:11.552Z,100469.12
2019-06-08T09:12:48.592Z,100460.44
2019-06-08T09:15:19.362Z,100461.38
2019-06-08T09:17:52.102Z,100458.84
2019-06-08T09:20:21.751Z,100463.45
2019-06-08T09:23:01.928Z,100467.98
2019-06-08T09:25:27.896Z,100470.57
2019-06-08T09:28:00.535Z,100469.66
2019-06-08T09:30:30.291Z,100466.76
2019-06-08T09:33:00.949Z,100472.75
2019-06-08T09:35:32.091Z,100471.69
2019-06-08T09:38:04.800Z,100469.92
2019-06-08T09:40:32.870Z,100470.06
2019-06-08T09:43:07.420Z,100467.03
2019-06-08T09:45:33.100Z,100466.17
2019-06-08T09:48:04.467Z,100465.26
2019-06-08T09:50:32.602Z,100472.17
2019-06-08T09:53:14.909Z,100464.11
2019-06-08T09:55:32.583Z,100462.09
2019-06-08T09:58:05.024Z,100462.54
2019-06-08T10:00:32.624Z,100457.09
2019-06-08T10:03:04.326Z,100454.23
2019-06-08T10:05:32.712Z,100453.93
2019-06-08T10:08:02.888Z,100448.38
2019-06-08T10:10:32.754Z,100446.09
2019-06-08T10:13:05.394Z,100452.36
2019-06-08T10:15:32.902Z,100446.41
2019-06-08T10:18:03.292Z,100440.44
2019-06-08T10:20:33.031Z,100441.25
2019-06-08T10:23:05.127Z,100440.51
2019-06-08T10:25:33.469Z,100428.14
2019-06-08T10:28:10.160Z,100432.82
2019-06-08T10:30:34.417Z,100433.71
2019-06-08T10:33:07.774Z,100434.72
2019-06-08T10:35:38.233Z,100424.68
2019-06-08T10:38:11.716Z,100419.22
2019-06-08T10:41:04.836Z,100434.44
2019-06-08T10:43:29.121Z,100431.83
2019-06-08T10:46:04.934Z,100430.59
2019-06-08T10:48:30.739Z,100433.63
2019-06-08T10:51:02.310Z,100423.95
2019-06-08T10:53:42.432Z,100423.61
2019-06-08T10:56:01.719Z,100423.70
2019-06-08T10:58:32.045Z,100418.55
2019-06-08T11:01:04.182Z,100424.59
2019-06-08T11:03:31.849Z,100419.21
2019-06-08T11:06:03.210Z,100409.10
2019-06-08T11:08:31.967Z,100410.72
2019-06-08T11:11:01.566Z,100407.97
2019-06-08T11:13:32.012Z,100406.73
2019-06-08T11:16:02.780Z,100407.47
2019-06-08T11:18:34.134Z,100405.10
2019-06-08T11:21:03.736Z,100402.01
2019-06-08T11:23:35.602Z,100398.95
2019-06-08T11:26:13.538Z,100404.94
2019-06-08T11:28:38.163Z,100402.86
2019-06-08T11:31:19.570Z,100400.70
2019-06-08T11:33:52.406Z,100395.89
2019-06-08T11:36:21.475Z,100392.84
2019-06-08T11:38:50.354Z,100391.23
2019-06-08T11:41:22.691Z,100397.98
2019-06-08T11:43:52.092Z,100389.64
2019-06-08T11:46:28.184Z,100391.09
2019-06-08T11:49:01.165Z,100390.75
2019-06-08T11:51:29.810Z,100390.12
2019-06-08T11:54:00.644Z,100395.70
2019-06-08T11:56:30.863Z,100396.85
2019-06-08T11:59:01.252Z,100395.00
2019-06-08T12:01:41.788Z,100400.42
2019-06-08T12:04:18.367Z,100389.20
2019-06-08T12:06:50.073Z,100395.69
2019-06-08T12:09:21.892Z,100395.98
2019-06-08T12:11:52.485Z,100398.66
2019-06-08T12:14:21.811Z,100407.11
2019-06-08T12:16:50.847Z,100408.00
2019-06-08T12:19:20.909Z,100397.84
2019-06-08T12:21:50.688Z,100398.65
2019-06-08T12:24:23.465Z,100387.14
2019-06-08T12:26:58.895Z,100395.02
2019-06-08T12:29:23.966Z,100385.50
2019-06-08T12:31:53.175Z,100386.20
2019-06-08T12:34:22.465Z,100390.84
2019-06-08T12:36:51.391Z,100388.12
2019-06-08T12:39:21.446Z,100392.08
2019-06-08T12:41:50.894Z,100395.66
2019-06-08T12:44:22.177Z,100385.27
2019-06-08T12:46:51.205Z,100382.78
2019-06-08T12:49:20.719Z,100384.84
2019-06-08T12:51:51.776Z,100382.36
2019-06-08T12:54:21.106Z,100387.98
2019-06-08T12:56:50.391Z,100380.30
2019-06-08T12:59:22.785Z,100385.56
2019-06-08T13:01:50.458Z,100377.25
2019-06-08T13:04:23.125Z,100373.29
2019-06-08T13:06:52.047Z,100383.61
2019-06-08T13:09:23.221Z,100380.72
2019-06-08T13:11:52.282Z,100379.31
2019-06-08T13:14:21.617Z,100375.87
2019-06-08T13:16:52.981Z,100370.20
2019-06-08T13:19:22.428Z,100364.53
2019-06-08T13:21:51.692Z,100362.58
2019-06-08T13:24:20.960Z,100366.67
2019-06-08T13:26:50.844Z,100361.19
2019-06-08T13:29:21.937Z,100364.44
2019-06-08T13:31:50.496Z,100358.75
2019-06-08T13:34:23.926Z,100361.12
2019-06-08T13:36:51.727Z,100363.38
2019-06-08T13:39:23.109Z,100360.73
2019-06-08T13:41:52.689Z,100356.73
2019-06-08T13:44:22.452Z,100359.12
2019-06-08T13:46:51.521Z,100344.03
2019-06-08T13:49:26.748Z,100345.64
2019-06-08T13:51:52.162Z,100344.86
2019-06-08T13:54:22.768Z,100341.34
2019-06-08T13:56:52.064Z,100345.24
2019-06-08T13:59:24.951Z,100343.28
2019-06-08T14:01:53.918Z,100344.65
2019-06-08T14:04:23.737Z,100344.72
2019-06-08T14:06:53.578Z,100337.72
2019-06-08T14:09:23.331Z,100339.06
2019-06-08T14:11:55.019Z,100337.17
2019-06-08T14:14:26.079Z,100330.11
2019-06-08T14:16:58.659Z,100330.45
2019-06-08T14:19:31.263Z,100320.14
2019-06-08T14:21:58.642Z,100314.89
2019-06-08T14:24:33.871Z,100307.16
2019-06-08T14:26:58.557Z,100313.27
2019-06-08T14:29:28.887Z,100309.54
2019-06-08T14:31:58.495Z,100307.97
2019-06-08T14:34:29.822Z,100309.41
2019-06-08T14:36:59.573Z,100308.69
2019-06-08T14:39:31.041Z,100314.45
2019-06-08T14:41:59.227Z,100305.19
2019-06-08T14:44:32.112Z,100306.02
2019-06-08T14:47:03.240Z,100306.81
2019-06-08T14:49:34.860Z,100302.42
2019-06-08T14:52:03.016Z,100300.67
2019-06-08T14:54:35.024Z,100301.06
2019-06-08T14:57:03.011Z,100297.60
2019-06-08T14:59:32.139Z,100297.42
2019-06-08T15:02:01.225Z,100295.94
2019-06-08T15:04:35.983Z,100285.63
2019-06-08T15:07:01.184Z,100277.94
2019-06-08T15:09:30.179Z,100277.57
2019-06-08T15:12:00.177Z,100270.66
2019-06-08T15:14:34.978Z,100278.28
2019-06-08T15:17:00.052Z,100286.70
2019-06-08T15:19:32.037Z,100292.00
2019-06-08T15:22:00.506Z,100293.03
2019-06-08T15:24:31.337Z,100280.48
2019-06-08T15:27:00.324Z,100274.69
2019-06-08T15:29:30.946Z,100281.17
2019-06-08T15:32:00.229Z,100280.57
2019-06-08T15:34:31.405Z,100280.17
2019-06-08T15:36:59.943Z,100273.50
2019-06-08T15:39:32.676Z,100273.92
2019-06-08T15:42:00.399Z,100276.86
2019-06-08T15:44:31.568Z,100275.09
2019-06-08T15:47:03.272Z,100280.28
2019-06-08T15:49:33.850Z,100286.48
2019-06-08T15:52:05.948Z,100291.52
2019-06-08T15:54:40.670Z,100285.02
2019-06-08T15:57:09.177Z,100287.92
2019-06-08T15:59:41.821Z,100291.87
2019-06-08T16:02:11.092Z,100292.39
2019-06-08T16:04:41.909Z,100293.03
2019-06-08T16:07:11.994Z,100296.78
2019-06-08T16:09:43.854Z,100290.27
2019-06-08T16:12:16.808Z,100292.89
2019-06-08T16:14:48.787Z,100292.23
2019-06-08T16:17:17.771Z,100296.54
2019-06-08T16:19:46.722Z,100298.09
2019-06-08T16:22:15.826Z,100301.56
2019-06-08T16:24:45.859Z,100297.30
2019-06-08T16:27:18.163Z,100294.70
2019-06-08T16:29:47.533Z,100294.78
2019-06-08T16:32:18.128Z,100291.97
2019-06-08T16:34:47.981Z,100289.78
2019-06-08T16:37:16.976Z,100293.67
2019-06-08T16:39:46.785Z,100294.82
2019-06-08T16:42:18.970Z,100309.70
2019-06-08T16:44:51.339Z,100304.16
2019-06-08T16:47:21.096Z,100315.05
2019-06-08T16:49:51.642Z,100314.91
2019-06-08T16:52:30.755Z,100330.11
2019-06-08T16:55:21.471Z,100324.36
2019-06-08T16:57:53.672Z,100330.55
2019-06-08T17:00:36.257Z,100348.64
2019-06-08T17:03:13.778Z,100356.53
2019-06-08T17:05:42.631Z,100356.28
2019-06-08T17:08:14.535Z,100355.95
2019-06-08T17:10:44.950Z,100351.55
2019-06-08T17:13:17.865Z,100358.30
2019-06-08T17:15:51.157Z,100367.36
2019-06-08T17:18:25.517Z,100365.28
2019-06-08T17:20:55.014Z,100367.45
2019-06-08T17:23:25.860Z,100372.55
2019-06-08T17:25:55.143Z,100367.27
2019-06-08T17:28:26.085Z,100366.97
2019-06-08T17:30:56.540Z,100357.40
2019-06-08T17:33:31.084Z,100355.43
2019-06-08T17:36:00.437Z,100364.20
2019-06-08T17:38:29.808Z,100351.08
2019-06-08T17:40:59.055Z,100353.27
2019-06-08T17:43:32.218Z,100355.34
2019-06-08T17:46:02.156Z,100349.97
2019-06-08T17:48:32.355Z,100361.38
2019-06-08T17:51:01.413Z,100348.80
2019-06-08T17:53:35.174Z,100357.75
2019-06-08T17:56:04.677Z,100353.52
2019-06-08T17:58:35.111Z,100360.92
2019-06-08T18:01:04.481Z,100360.75
2019-06-08T18:03:34.090Z,100362.80
2019-06-08T18:06:07.148Z,100369.86
2019-06-08T18:08:36.789Z,100364.62
2019-06-08T18:11:08.073Z,100369.00
2019-06-08T18:13:40.496Z,100364.96
2019-06-08T18:16:11.147Z,100373.05
2019-06-08T18:18:44.297Z,100377.45
2019-06-08T18:21:17.572Z,100379.16
2019-06-08T18:23:48.698Z,100381.69
2019-06-08T18:26:19.924Z,100385.89
2019-06-08T18:28:55.159Z,100384.88
2019-06-08T18:31:29.350Z,100398.84
2019-06-08T18:34:02.057Z,100403.08
2019-06-08T18:36:32.674Z,100398.84
2019-06-08T18:39:07.219Z,100406.56
2019-06-08T18:41:40.753Z,100396.30
2019-06-08T18:44:11.268Z,100397.65
2019-06-08T18:46:43.231Z,100400.17
2019-06-08T18:49:14.081Z,100397.64
2019-06-08T18:51:46.266Z,100394.59
2019-06-08T18:54:18.835Z,100396.10
2019-06-08T18:56:49.807Z,100396.92
2019-06-08T18:59:20.677Z,100396.75
2019-06-08T19:01:52.577Z,100396.42
2019-06-08T19:04:23.760Z,100395.25
2019-06-08T19:06:54.330Z,100396.59
2019-06-08T19:09:25.840Z,100396.93
2019-06-08T19:11:57.443Z,100399.80
2019-06-08T19:14:28.640Z,100396.27
2019-06-08T19:16:59.883Z,100403.00
2019-06-08T19:19:31.665Z,100404.02
2019-06-08T19:22:02.803Z,100399.95
2019-06-08T19:24:34.797Z,100405.83
2019-06-08T19:27:04.696Z,100399.41
2019-06-08T19:29:35.395Z,100408.30
2019-06-08T19:32:07.421Z,100404.56
2019-06-08T19:34:40.811Z,100409.10
2019-06-08T19:37:10.366Z,100413.28
2019-06-08T19:39:44.153Z,100412.08
2019-06-08T19:42:17.410Z,100417.44
2019-06-08T19:44:59.627Z,100420.45
2019-06-08T19:47:19.618Z,100421.44
2019-06-08T19:49:54.440Z,100421.09
2019-06-08T19:52:22.642Z,100411.15
2019-06-08T19:54:58.145Z,100414.36
2019-06-08T19:57:28.218Z,100408.97
2019-06-08T20:00:00.414Z,100410.63
2019-06-08T20:02:30.713Z,100410.73
2019-06-08T20:05:00.970Z,100415.55
2019-06-08T20:07:31.570Z,100416.35
2019-06-08T20:10:02.156Z,100413.09
2019-06-08T20:12:33.375Z,100407.20
2019-06-08T20:15:04.389Z,100407.66
2019-06-08T20:17:39.160Z,100409.86
2019-06-08T20:20:11.173Z,100415.23
2019-06-08T20:22:41.941Z,100419.61
2019-06-08T20:25:12.518Z,100416.58
2019-06-08T20:27:43.328Z,100416.25
2019-06-08T20:30:14.121Z,100419.91
2019-06-08T20:32:50.800Z,100414.70
2019-06-08T20:35:19.897Z,100415.48
2019-06-08T20:37:50.034Z,100420.73
2019-06-08T20:40:24.013Z,100414.77
2019-06-08T20:42:58.383Z,100411.03
2019-06-08T20:45:28.758Z,100412.02
2019-06-08T20:47:58.980Z,100410.45
2019-06-08T20:50:29.353Z,100420.31
2019-06-08T20:53:03.030Z,100418.41
2019-06-08T20:55:41.087Z,100418.52
2019-06-08T20:58:08.462Z,100424.68
2019-06-08T21:00:44.041Z,100424.27
2019-06-08T21:03:17.529Z,100407.25
2019-06-08T21:06:02.313Z,100407.25
2019-06-08T21:08:32.814Z,100432.31
2019-06-08T21:11:03.332Z,100432.56
2019-06-08T21:13:51.194Z,100436.25
2019-06-08T21:16:20.104Z,100437.25
2019-06-08T21:18:50.875Z,100434.30
2019-06-08T21:21:21.568Z,100441.82
2019-06-08T21:23:54.753Z,100435.06
2019-06-08T21:26:25.106Z,100426.42
2019-06-08T21:29:00.140Z,100424.95
2019-06-08T21:31:28.644Z,100419.48
2019-06-08T21:34:00.864Z,100418.46
2019-06-08T21:36:32.116Z,100419.77
2019-06-08T21:39:03.017Z,100420.69
2019-06-08T21:41:38.008Z,100424.03
2019-06-08T21:44:09.313Z,100423.13
2019-06-08T21:46:40.063Z,100429.02
2019-06-08T21:49:13.817Z,100431.43
2019-06-08T21:51:48.532Z,100431.11
2019-06-08T21:54:19.175Z,100423.97
2019-06-08T21:56:51.599Z,100430.71
2019-06-08T21:59:22.114Z,100427.78
2019-06-08T22:01:53.473Z,100431.41
2019-06-08T22:04:24.315Z,100431.21
2019-06-08T22:06:59.632Z,100433.50
2019-06-08T22:09:29.495Z,100430.84
2019-06-08T22:12:00.990Z,100435.47
2019-06-08T22:14:32.698Z,100432.84
2019-06-08T22:17:07.666Z,100434.27
2019-06-08T22:19:38.022Z,100436.54
2019-06-08T22:22:11.165Z,100437.44
2019-06-08T22:24:51.854Z,100443.39
2019-06-08T22:27:24.177Z,100444.53
2019-06-08T22:29:58.573Z,100446.01
2019-06-08T22:32:29.933Z,100445.02
2019-06-08T22:35:01.809Z,100447.69
2019-06-08T22:37:33.086Z,100445.87
2019-06-08T22:40:03.864Z,100449.38
2019-06-08T22:42:34.354Z,100453.19
2019-06-08T22:45:05.385Z,100450.30
2019-06-08T22:47:38.477Z,100449.69
2019-06-08T22:50:09.049Z,100453.13
2019-06-08T22:52:39.745Z,100447.00
2019-06-08T22:55:11.165Z,100449.17
2019-06-08T22:57:41.997Z,100448.27
2019-06-08T23:00:17.236Z,100456.58
2019-06-08T23:02:44.148Z,100460.34
2019-06-08T23:05:14.925Z,100465.48
2019-06-08T23:07:45.199Z,100457.87
2019-06-08T23:10:17.459Z,100460.56
2019-06-08T23:12:48.164Z,100454.42
2019-06-08T23:15:19.077Z,100459.38
2019-06-08T23:17:49.670Z,100466.91
2019-06-08T23:20:20.111Z,100460.09
2019-06-08T23:22:50.511Z,100465.38
2019-06-08T23:25:21.306Z,100464.70
2019-06-08T23:27:52.119Z,100466.52
2019-06-08T23:30:22.923Z,100466.66
2019-06-08T23:32:53.375Z,100465.97
2019-06-08T23:35:24.159Z,100466.77
2019-06-08T23:37:54.665Z,100469.72
2019-06-08T23:40:27.277Z,100464.77
2019-06-08T23:42:58.507Z,100463.36
2019-06-08T23:45:28.492Z,100463.67
2019-06-08T23:48:01.067Z,100465.62
2019-06-08T23:50:31.345Z,100468.30
2019-06-08T23:53:02.391Z,100469.99
2019-06-08T23:55:33.293Z,100472.67
2019-06-08T23:58:05.012Z,100472.32
